createdAt,value
2023-05-10T00:01:14.522Z,222.95
2023-05-10T00:06:18.797Z,233.48
2023-05-10T00:11:23.144Z,204.83
2023-05-10T00:16:26.159Z,207.18
2023-05-10T00:21:30.391Z,198.93
2023-05-10T00:26:33.295Z,183.93
2023-05-10T00:31:36.713Z,163.82
2023-05-10T00:36:40.951Z,182.93
2023-05-10T00:41:43.814Z,175.00
2023-05-10T00:46:46.957Z,167.63
2023-05-10T00:51:51.849Z,181.13
2023-05-10T00:56:54.618Z,148.85
2023-05-10T01:01:57.344Z,158.80
2023-05-10T01:07:02.166Z,163.95
2023-05-10T01:12:07.880Z,155.65
2023-05-10T01:17:12.062Z,162.82
2023-05-10T01:22:33.190Z,152.75
2023-05-10T01:28:10.258Z,139.13
2023-05-10T01:33:18.247Z,175.00
2023-05-10T01:38:25.030Z,175.80
2023-05-10T01:43:31.018Z,181.60
2023-05-10T01:48:35.702Z,174.50
2023-05-10T01:53:39.429Z,137.45
2023-05-10T01:58:44.910Z,101.38
2023-05-10T02:03:50.090Z,105.80
2023-05-10T02:08:54.437Z,105.95
2023-05-10T02:13:57.447Z,94.55
2023-05-10T02:19:05.867Z,96.63
2023-05-10T02:24:09.593Z,102.32
2023-05-10T02:29:13.791Z,98.47
2023-05-10T02:34:18.076Z,106.72
2023-05-10T02:39:23.188Z,88.85
2023-05-10T02:44:27.253Z,105.85
2023-05-10T02:49:31.471Z,83.20
2023-05-10T02:54:35.603Z,73.75
2023-05-10T02:59:38.487Z,67.20
2023-05-10T03:04:42.656Z,60.05
2023-05-10T03:09:46.185Z,67.30
2023-05-10T03:14:55.982Z,60.63
2023-05-10T03:20:00.986Z,63.90
2023-05-10T03:25:08.051Z,67.82
2023-05-10T03:30:13.283Z,62.65
2023-05-10T03:35:17.783Z,68.43
2023-05-10T03:40:21.110Z,56.10
2023-05-10T03:45:24.182Z,60.10
2023-05-10T03:50:28.637Z,59.22
2023-05-10T03:55:35.488Z,56.75
2023-05-10T04:00:38.618Z,58.90
2023-05-10T04:05:42.860Z,63.83
2023-05-10T04:10:45.926Z,75.43
2023-05-10T04:15:48.679Z,64.67
2023-05-10T04:20:52.790Z,73.35
2023-05-10T04:26:01.522Z,92.93
2023-05-10T04:31:05.120Z,102.03
2023-05-10T04:36:09.856Z,107.03
2023-05-10T04:41:12.983Z,97.45
2023-05-10T04:46:15.796Z,101.00
2023-05-10T04:51:19.955Z,105.65
2023-05-10T04:56:22.967Z,107.23
2023-05-10T05:01:25.806Z,111.40
2023-05-10T05:06:30.048Z,109.80
2023-05-10T05:11:32.876Z,114.53
2023-05-10T05:16:35.770Z,113.15
2023-05-10T05:21:40.088Z,116.35
2023-05-10T05:26:42.865Z,118.30
2023-05-10T05:31:45.758Z,124.65
2023-05-10T05:36:49.942Z,113.13
2023-05-10T05:41:52.829Z,101.20
2023-05-10T05:46:55.705Z,105.77
2023-05-10T05:52:02.509Z,111.17
2023-05-10T05:57:05.675Z,100.38
2023-05-10T06:02:08.426Z,111.67
2023-05-10T06:07:12.635Z,95.13
2023-05-10T06:12:15.487Z,101.18
2023-05-10T06:17:19.098Z,105.13
2023-05-10T06:22:23.769Z,105.68
2023-05-10T06:27:26.951Z,95.07
2023-05-10T06:32:29.945Z,94.40
2023-05-10T06:37:34.198Z,96.83
2023-05-10T06:42:37.105Z,92.30
2023-05-10T06:47:40.053Z,84.85
2023-05-10T06:52:44.723Z,88.22
2023-05-10T06:57:48.674Z,95.47
2023-05-10T07:02:52.182Z,87.30
2023-05-10T07:07:56.537Z,85.32
2023-05-10T07:12:59.496Z,86.53
2023-05-10T07:18:02.704Z,90.90
2023-05-10T07:23:07.043Z,84.07
2023-05-10T07:28:09.958Z,92.60
2023-05-10T07:33:16.707Z,93.30
2023-05-10T07:38:21.059Z,92.57
2023-05-10T07:43:24.071Z,90.90
2023-05-10T07:48:27.051Z,85.90
2023-05-10T07:53:31.360Z,79.47
2023-05-10T07:58:34.309Z,85.43
2023-05-10T08:03:37.345Z,84.55
2023-05-10T08:08:41.631Z,75.20
2023-05-10T08:13:44.578Z,73.73
2023-05-10T08:18:48.475Z,63.53
2023-05-10T08:23:52.824Z,74.47
2023-05-10T08:28:55.761Z,59.35
2023-05-10T08:33:58.615Z,58.85
2023-05-10T08:39:03.321Z,54.30
2023-05-10T08:44:07.099Z,38.80
2023-05-10T08:49:10.608Z,45.17
2023-05-10T08:54:15.129Z,43.00
2023-05-10T08:59:18.086Z,41.85
2023-05-10T09:04:21.547Z,41.63
2023-05-10T09:09:26.410Z,41.10
2023-05-10T09:14:29.832Z,47.40
2023-05-10T09:19:48.220Z,40.17
2023-05-10T09:25:05.867Z,42.28
2023-05-10T09:30:10.082Z,45.27
2023-05-10T09:35:16.146Z,40.53
2023-05-10T09:40:20.309Z,35.00
2023-05-10T09:45:23.641Z,37.22
2023-05-10T09:50:28.662Z,28.05
2023-05-10T09:55:41.285Z,27.63
2023-05-10T10:00:45.556Z,29.33
2023-05-10T10:05:51.221Z,35.40
2023-05-10T10:10:54.092Z,30.70
2023-05-10T10:15:57.097Z,34.77
2023-05-10T10:21:01.766Z,29.33
2023-05-10T10:26:05.321Z,35.65
2023-05-10T10:31:17.652Z,30.00
2023-05-10T10:36:23.126Z,29.88
2023-05-10T10:41:30.360Z,29.95
2023-05-10T10:46:33.188Z,39.47
2023-05-10T10:51:39.760Z,31.20
2023-05-10T10:56:42.775Z,31.33
2023-05-10T11:01:46.107Z,30.60
2023-05-10T11:06:50.321Z,24.93
2023-05-10T11:11:55.944Z,23.23
2023-05-10T11:17:01.729Z,29.93
2023-05-10T11:22:15.526Z,35.30
2023-05-10T11:27:18.408Z,31.48
2023-05-10T11:32:21.847Z,31.53
2023-05-10T11:37:26.092Z,41.25
2023-05-10T11:42:29.923Z,36.17
2023-05-10T11:47:33.017Z,26.42
2023-05-10T11:52:39.327Z,29.87
2023-05-10T11:57:43.541Z,22.17
2023-05-10T12:02:46.519Z,20.25
2023-05-10T12:07:50.832Z,21.08
2023-05-10T12:12:54.332Z,14.73
2023-05-10T12:17:59.208Z,15.48
2023-05-10T12:23:04.780Z,13.98
2023-05-10T12:28:09.795Z,16.23
2023-05-10T12:33:15.918Z,15.25
2023-05-10T12:38:30.490Z,16.83
2023-05-10T12:43:34.014Z,10.65
2023-05-10T12:48:37.109Z,9.25
2023-05-10T12:53:43.483Z,10.70
2023-05-10T12:58:49.165Z,16.33
2023-05-10T13:03:52.168Z,16.15
2023-05-10T13:08:56.325Z,15.75
2023-05-10T13:13:59.347Z,11.30
2023-05-10T13:19:02.187Z,8.93
2023-05-10T13:24:06.708Z,7.67
2023-05-10T13:29:09.685Z,8.98
2023-05-10T13:34:12.504Z,6.20
2023-05-10T13:39:16.790Z,7.07
2023-05-10T13:44:19.827Z,10.45
2023-05-10T13:49:23.002Z,12.27
2023-05-10T13:54:30.409Z,12.70
2023-05-10T13:59:34.531Z,15.47
2023-05-10T14:04:37.411Z,15.53
2023-05-10T14:09:41.589Z,15.48
2023-05-10T14:14:44.388Z,15.00
2023-05-10T14:19:47.459Z,21.83
2023-05-10T14:24:51.700Z,15.75
2023-05-10T14:29:55.223Z,16.55
2023-05-10T14:34:58.021Z,14.83
2023-05-10T14:40:02.474Z,10.60
2023-05-10T14:45:06.285Z,10.13
2023-05-10T14:50:09.845Z,11.88
2023-05-10T14:55:14.038Z,14.25
2023-05-10T15:00:18.193Z,11.10
2023-05-10T15:05:21.559Z,13.23
2023-05-10T15:10:26.263Z,12.60
2023-05-10T15:15:29.115Z,11.70
2023-05-10T15:20:31.902Z,13.57
2023-05-10T15:25:38.249Z,15.13
2023-05-10T15:30:41.159Z,12.93
2023-05-10T15:35:43.903Z,11.75
2023-05-10T15:40:48.019Z,8.05
2023-05-10T15:45:51.392Z,16.88
2023-05-10T15:50:54.477Z,20.00
2023-05-10T15:55:58.772Z,24.27
2023-05-10T16:01:01.702Z,22.45
2023-05-10T16:06:04.809Z,22.92
2023-05-10T16:11:09.893Z,19.63
2023-05-10T16:16:12.741Z,20.67
2023-05-10T16:21:15.692Z,22.37
2023-05-10T16:26:19.879Z,21.92
2023-05-10T16:31:23.247Z,24.60
2023-05-10T16:36:26.269Z,20.75
2023-05-10T16:41:30.607Z,19.03
2023-05-10T16:46:34.216Z,15.35
2023-05-10T16:51:37.150Z,14.93
2023-05-10T16:56:41.401Z,15.65
2023-05-10T17:01:44.940Z,14.27
2023-05-10T17:06:47.817Z,14.00
2023-05-10T17:11:52.028Z,16.65
2023-05-10T17:16:55.606Z,11.52
2023-05-10T17:21:58.513Z,14.18
2023-05-10T17:27:03.676Z,16.55
2023-05-10T17:32:09.070Z,14.82
2023-05-10T17:37:12.079Z,16.88
2023-05-10T17:42:17.608Z,15.98
2023-05-10T17:47:20.717Z,16.97
2023-05-10T17:52:23.573Z,17.00
2023-05-10T17:57:28.213Z,15.67
2023-05-10T18:02:31.170Z,15.77
2023-05-10T18:07:34.050Z,14.63
2023-05-10T18:12:38.200Z,17.48
2023-05-10T18:17:41.301Z,17.52
2023-05-10T18:22:44.557Z,18.10
2023-05-10T18:27:48.894Z,15.88
2023-05-10T18:32:51.796Z,17.53
2023-05-10T18:37:54.698Z,15.50
2023-05-10T18:42:58.974Z,17.48
2023-05-10T18:48:01.913Z,16.63
2023-05-10T18:53:04.809Z,15.07
2023-05-10T18:58:09.175Z,14.93
2023-05-10T19:03:12.048Z,18.42
2023-05-10T19:08:15.014Z,19.17
2023-05-10T19:13:19.511Z,15.73
2023-05-10T19:18:22.533Z,21.42
2023-05-10T19:23:29.206Z,16.55
2023-05-10T19:28:34.997Z,21.92
2023-05-10T19:33:38.381Z,17.70
2023-05-10T19:38:41.603Z,17.90
2023-05-10T19:43:45.952Z,19.45
2023-05-10T19:48:48.849Z,23.30
2023-05-10T19:53:51.766Z,25.93
2023-05-10T19:58:56.039Z,18.70
2023-05-10T20:03:58.931Z,20.27
2023-05-10T20:09:01.750Z,18.25
2023-05-10T20:14:06.123Z,18.30
2023-05-10T20:19:09.097Z,18.10
2023-05-10T20:24:12.036Z,15.77
2023-05-10T20:29:16.489Z,17.48
2023-05-10T20:34:19.601Z,19.70
2023-05-10T20:39:22.466Z,22.50
2023-05-10T20:44:26.718Z,20.73
2023-05-10T20:49:29.666Z,24.52
2023-05-10T20:54:32.526Z,22.35
2023-05-10T20:59:37.074Z,20.90
2023-05-10T21:04:39.922Z,22.53
2023-05-10T21:09:42.681Z,21.30
2023-05-10T21:14:47.900Z,21.52
2023-05-10T21:19:51.527Z,16.85
2023-05-10T21:24:54.531Z,19.02
2023-05-10T21:29:59.298Z,25.17
2023-05-10T21:35:02.280Z,23.27
2023-05-10T21:40:05.998Z,25.23
2023-05-10T21:45:11.116Z,28.98
2023-05-10T21:50:14.005Z,28.77
2023-05-10T21:55:25.051Z,24.67
2023-05-10T22:00:31.245Z,19.70
2023-05-10T22:05:35.653Z,21.23
2023-05-10T22:10:38.496Z,24.17
2023-05-10T22:15:43.308Z,21.73
2023-05-10T22:20:46.542Z,20.50
2023-05-10T22:25:49.319Z,20.87
2023-05-10T22:30:53.694Z,19.77
2023-05-10T22:36:18.624Z,19.73
2023-05-10T22:41:23.140Z,18.88
2023-05-10T22:46:27.459Z,14.48
2023-05-10T22:51:30.327Z,15.23
2023-05-10T22:56:33.246Z,18.47
2023-05-10T23:01:37.506Z,18.53
2023-05-10T23:06:40.601Z,11.95
2023-05-10T23:11:43.492Z,13.00
2023-05-10T23:16:47.898Z,18.48
2023-05-10T23:21:50.730Z,15.77
2023-05-10T23:26:53.495Z,14.57
2023-05-10T23:31:57.792Z,12.60
2023-05-10T23:37:00.703Z,16.00
2023-05-10T23:42:03.534Z,17.67
2023-05-10T23:47:07.663Z,14.63
2023-05-10T23:52:10.817Z,17.30
2023-05-10T23:57:13.656Z,14.63
